createdAt,value
2022-09-17T00:01:23.330Z,57.79
2022-09-17T00:03:55.891Z,59.30
2022-09-17T00:06:25.680Z,56.67
2022-09-17T00:08:53.824Z,57.17
2022-09-17T00:11:26.552Z,57.10
2022-09-17T00:13:54.643Z,58.72
2022-09-17T00:16:34.929Z,57.25
2022-09-17T00:19:02.959Z,58.52
2022-09-17T00:21:30.399Z,58.39
2022-09-17T00:23:59.065Z,59.11
2022-09-17T00:26:26.653Z,59.28
2022-09-17T00:28:54.700Z,57.80
2022-09-17T00:31:22.575Z,57.77
2022-09-17T00:33:49.805Z,57.09
2022-09-17T00:36:17.370Z,57.98
2022-09-17T00:38:45.220Z,57.16
2022-09-17T00:41:11.985Z,56.97
2022-09-17T00:43:45.050Z,57.87
2022-09-17T00:46:33.807Z,57.88
2022-09-17T00:49:04.808Z,57.08
2022-09-17T00:51:37.375Z,57.10
2022-09-17T00:54:07.810Z,56.39
2022-09-17T00:56:37.213Z,58.75
2022-09-17T00:59:04.702Z,59.16
2022-09-17T01:01:32.329Z,58.19
2022-09-17T01:03:59.103Z,59.07
2022-09-17T01:06:45.268Z,61.11
2022-09-17T01:09:18.002Z,61.71
2022-09-17T01:11:56.858Z,60.63
2022-09-17T01:14:53.418Z,60.11
2022-09-17T01:17:43.169Z,58.29
2022-09-17T01:20:47.666Z,58.60
2022-09-17T01:23:42.828Z,60.42
2022-09-17T01:26:51.888Z,60.51
2022-09-17T01:29:27.484Z,59.12
2022-09-17T01:32:20.299Z,58.87
2022-09-17T01:34:56.570Z,58.44
2022-09-17T01:38:00.244Z,59.83
2022-09-17T01:40:42.039Z,59.48
2022-09-17T01:43:19.358Z,58.69
2022-09-17T01:45:51.820Z,59.76
2022-09-17T01:48:27.640Z,60.35
2022-09-17T01:51:13.059Z,61.13
2022-09-17T01:53:51.772Z,62.04
2022-09-17T01:56:25.136Z,62.50
2022-09-17T01:58:58.059Z,62.06
2022-09-17T02:01:28.939Z,62.42
2022-09-17T02:04:14.657Z,62.80
2022-09-17T02:06:47.749Z,63.16
2022-09-17T02:09:22.613Z,62.05
2022-09-17T02:11:58.967Z,62.85
2022-09-17T02:14:31.298Z,62.50
2022-09-17T02:17:06.914Z,59.09
2022-09-17T02:19:38.534Z,58.88
2022-09-17T02:22:30.087Z,60.45
2022-09-17T02:25:33.651Z,61.38
2022-09-17T02:28:16.582Z,61.51
2022-09-17T02:30:44.703Z,61.22
2022-09-17T02:33:14.690Z,59.60
2022-09-17T02:35:42.204Z,61.25
2022-09-17T02:38:09.184Z,61.07
2022-09-17T02:40:45.299Z,61.20
2022-09-17T02:43:23.956Z,60.45
2022-09-17T02:46:10.126Z,60.10
2022-09-17T02:49:12.113Z,59.89
2022-09-17T02:51:56.375Z,57.82
2022-09-17T02:54:40.227Z,58.15
2022-09-17T02:57:21.228Z,58.71
2022-09-17T02:59:52.513Z,57.62
2022-09-17T03:02:35.882Z,58.87
2022-09-17T03:05:04.410Z,59.02
2022-09-17T03:07:32.690Z,58.79
2022-09-17T03:09:59.767Z,59.62
2022-09-17T03:12:26.952Z,59.20
2022-09-17T03:14:53.763Z,59.88
2022-09-17T03:17:20.367Z,58.11
2022-09-17T03:19:46.894Z,59.56
2022-09-17T03:22:13.885Z,60.51
2022-09-17T03:24:40.457Z,60.79
2022-09-17T03:27:07.088Z,59.68
2022-09-17T03:29:33.787Z,56.86
2022-09-17T03:32:01.142Z,56.25
2022-09-17T03:34:27.826Z,57.34
2022-09-17T03:36:54.463Z,58.73
2022-09-17T03:39:21.094Z,57.63
2022-09-17T03:41:47.834Z,59.38
2022-09-17T03:44:15.528Z,60.14
2022-09-17T03:46:42.370Z,60.55
2022-09-17T03:49:09.169Z,61.49
2022-09-17T03:51:36.027Z,59.87
2022-09-17T03:54:03.720Z,61.76
2022-09-17T03:56:30.329Z,60.20
2022-09-17T03:59:01.209Z,59.47
2022-09-17T04:01:29.053Z,59.40
2022-09-17T04:03:56.616Z,60.73
2022-09-17T04:06:23.173Z,61.42
2022-09-17T04:08:49.907Z,58.13
2022-09-17T04:11:16.547Z,59.92
2022-09-17T04:13:43.245Z,58.85
2022-09-17T04:16:10.008Z,58.39
2022-09-17T04:18:36.986Z,57.95
2022-09-17T04:21:03.789Z,59.84
2022-09-17T04:23:32.615Z,57.60
2022-09-17T04:25:59.174Z,57.45
2022-09-17T04:28:25.911Z,57.67
2022-09-17T04:30:52.597Z,58.94
2022-09-17T04:33:19.194Z,58.76
2022-09-17T04:35:45.837Z,59.51
2022-09-17T04:38:18.350Z,60.06
2022-09-17T04:40:46.527Z,59.89
2022-09-17T04:43:13.713Z,57.91
2022-09-17T04:45:40.549Z,58.09
2022-09-17T04:48:07.225Z,57.39
2022-09-17T04:50:33.914Z,60.02
2022-09-17T04:53:00.604Z,58.90
2022-09-17T04:55:27.839Z,59.20
2022-09-17T04:57:54.866Z,59.39
2022-09-17T05:00:22.898Z,56.85
2022-09-17T05:02:52.236Z,57.15
2022-09-17T05:05:19.804Z,59.11
2022-09-17T05:07:46.852Z,56.65
2022-09-17T05:10:16.603Z,58.29
2022-09-17T05:12:51.740Z,57.59
2022-09-17T05:15:18.476Z,58.19
2022-09-17T05:17:45.821Z,56.36
2022-09-17T05:20:14.122Z,58.91
2022-09-17T05:22:45.603Z,57.13
2022-09-17T05:25:13.786Z,57.05
2022-09-17T05:27:41.854Z,59.06
2022-09-17T05:30:10.263Z,59.55
2022-09-17T05:32:37.165Z,59.96
2022-09-17T05:35:06.131Z,59.13
2022-09-17T05:37:33.269Z,58.61
2022-09-17T05:40:01.735Z,57.63
2022-09-17T05:42:28.986Z,57.90
2022-09-17T05:44:55.617Z,58.27
2022-09-17T05:47:22.268Z,58.19
2022-09-17T05:49:48.994Z,58.72
2022-09-17T05:52:16.443Z,59.81
2022-09-17T05:54:43.393Z,59.19
2022-09-17T05:57:10.148Z,59.30
2022-09-17T05:59:37.021Z,57.90
2022-09-17T06:02:04.390Z,60.50
2022-09-17T06:04:34.732Z,60.15
2022-09-17T06:07:07.442Z,60.60
2022-09-17T06:09:37.436Z,59.45
2022-09-17T06:12:05.167Z,58.14
2022-09-17T06:14:31.772Z,59.58
2022-09-17T06:16:58.394Z,59.37
2022-09-17T06:19:25.317Z,59.06
2022-09-17T06:21:52.516Z,60.27
2022-09-17T06:24:19.081Z,60.48
2022-09-17T06:26:45.748Z,59.36
2022-09-17T06:29:15.226Z,58.77
2022-09-17T06:31:44.950Z,59.39
2022-09-17T06:34:12.316Z,58.41
2022-09-17T06:36:40.133Z,59.43
2022-09-17T06:39:07.445Z,56.95
2022-09-17T06:41:34.279Z,59.48
2022-09-17T06:44:02.169Z,61.82
2022-09-17T06:46:31.023Z,61.50
2022-09-17T06:48:57.754Z,57.85
2022-09-17T06:51:24.457Z,61.02
2022-09-17T06:53:51.131Z,58.78
2022-09-17T06:56:19.069Z,56.60
2022-09-17T06:58:45.787Z,59.85
2022-09-17T07:01:13.506Z,58.20
2022-09-17T07:03:46.017Z,55.84
2022-09-17T07:06:12.893Z,58.72
2022-09-17T07:08:39.711Z,55.76
2022-09-17T07:11:08.125Z,58.62
2022-09-17T07:13:35.098Z,55.77
2022-09-17T07:16:03.751Z,57.83
2022-09-17T07:18:30.954Z,57.57
2022-09-17T07:21:02.955Z,60.23
2022-09-17T07:23:35.107Z,57.35
2022-09-17T07:26:04.889Z,57.99
2022-09-17T07:28:31.730Z,59.00
2022-09-17T07:30:58.489Z,60.29
2022-09-17T07:33:27.832Z,60.73
2022-09-17T07:36:00.234Z,62.04
2022-09-17T07:38:28.628Z,60.81
2022-09-17T07:41:02.658Z,63.87
2022-09-17T07:43:38.474Z,61.07
2022-09-17T07:46:08.403Z,63.64
2022-09-17T07:48:35.549Z,62.33
2022-09-17T07:51:02.733Z,63.45
2022-09-17T07:53:29.486Z,66.85
2022-09-17T07:55:59.012Z,63.82
2022-09-17T07:58:33.911Z,63.43
2022-09-17T08:01:04.649Z,63.21
2022-09-17T08:03:32.726Z,64.68
2022-09-17T08:06:20.143Z,59.81
2022-09-17T08:08:48.881Z,60.38
2022-09-17T08:11:44.785Z,61.58
2022-09-17T08:14:10.290Z,58.69
2022-09-17T08:16:36.902Z,60.28
2022-09-17T08:19:05.812Z,60.52
2022-09-17T08:21:37.121Z,61.38
2022-09-17T08:24:05.780Z,61.56
2022-09-17T08:26:33.360Z,62.01
2022-09-17T08:29:00.259Z,62.99
2022-09-17T08:31:30.197Z,62.91
2022-09-17T08:33:57.296Z,65.00
2022-09-17T08:36:26.221Z,65.29
2022-09-17T08:38:54.497Z,66.07
2022-09-17T08:41:24.302Z,64.77
2022-09-17T08:43:50.850Z,65.51
2022-09-17T08:46:17.589Z,66.17
2022-09-17T08:49:17.551Z,64.15
2022-09-17T08:52:06.758Z,66.61
2022-09-17T08:55:00.400Z,63.32
2022-09-17T08:57:36.340Z,63.97
2022-09-17T09:00:12.812Z,62.68
2022-09-17T09:02:49.805Z,62.63
2022-09-17T09:05:35.207Z,62.57
2022-09-17T09:08:12.832Z,63.66
2022-09-17T09:11:02.651Z,67.10
2022-09-17T09:13:36.142Z,64.65
2022-09-17T09:16:08.140Z,65.85
2022-09-17T09:18:40.388Z,65.38
2022-09-17T09:21:13.162Z,64.90
2022-09-17T09:23:52.175Z,64.99
2022-09-17T09:26:24.571Z,64.20
2022-09-17T09:28:55.391Z,67.82
2022-09-17T09:31:25.254Z,65.70
2022-09-17T09:33:52.630Z,66.63
2022-09-17T09:36:22.172Z,66.82
2022-09-17T09:38:58.834Z,65.28
2022-09-17T09:42:09.858Z,64.46
2022-09-17T09:44:37.282Z,64.80
2022-09-17T09:47:22.152Z,64.81
2022-09-17T09:50:08.256Z,65.87
2022-09-17T09:53:02.686Z,67.06
2022-09-17T09:55:41.363Z,71.77
2022-09-17T09:58:30.049Z,68.50
2022-09-17T10:00:56.756Z,61.68
2022-09-17T10:03:26.395Z,63.25
2022-09-17T10:06:07.831Z,62.27
2022-09-17T10:08:37.376Z,67.31
2022-09-17T10:11:24.681Z,65.36
2022-09-17T10:13:52.088Z,67.39
2022-09-17T10:16:21.465Z,66.36
2022-09-17T10:18:50.931Z,63.45
2022-09-17T10:21:32.739Z,60.72
2022-09-17T10:24:05.003Z,62.42
2022-09-17T10:26:37.070Z,63.36
2022-09-17T10:29:06.588Z,64.55
2022-09-17T10:31:54.084Z,67.99
2022-09-17T10:34:31.848Z,68.34
2022-09-17T10:36:58.878Z,68.61
2022-09-17T10:39:34.181Z,68.53
2022-09-17T10:42:05.367Z,68.96
2022-09-17T10:44:38.188Z,66.66
2022-09-17T10:47:17.616Z,69.42
2022-09-17T10:49:48.315Z,66.56
2022-09-17T10:52:27.518Z,65.52
2022-09-17T10:55:02.558Z,66.34
2022-09-17T10:57:50.533Z,67.90
2022-09-17T11:00:23.375Z,67.21
2022-09-17T11:02:56.120Z,68.58
2022-09-17T11:06:12.181Z,66.09
2022-09-17T11:09:25.399Z,66.34
2022-09-17T11:12:20.861Z,66.79
2022-09-17T11:14:59.345Z,67.38
2022-09-17T11:17:31.815Z,64.77
2022-09-17T11:19:58.370Z,63.08
2022-09-17T11:22:28.039Z,62.20
2022-09-17T11:25:22.213Z,63.96
2022-09-17T11:28:05.777Z,63.07
2022-09-17T11:33:53.017Z,64.79
2022-09-17T11:36:31.628Z,68.11
2022-09-17T11:39:10.534Z,63.36
2022-09-17T11:41:43.970Z,66.89
2022-09-17T11:44:16.056Z,61.58
2022-09-17T11:47:02.680Z,58.31
2022-09-17T11:49:47.969Z,61.53
2022-09-17T11:52:44.001Z,60.42
2022-09-17T11:55:49.364Z,56.35
2022-09-17T11:58:40.253Z,60.88
2022-09-17T12:01:17.984Z,57.75
2022-09-17T12:03:53.298Z,55.83
2022-09-17T12:06:40.250Z,55.01
2022-09-17T12:09:21.475Z,55.99
2022-09-17T12:12:26.405Z,56.36
2022-09-17T12:15:24.255Z,54.27
2022-09-17T12:18:34.109Z,51.88
2022-09-17T12:21:04.898Z,58.11
2022-09-17T12:23:40.678Z,57.36
2022-09-17T12:26:21.388Z,51.37
2022-09-17T12:29:20.586Z,54.25
2022-09-17T12:31:58.853Z,53.73
2022-09-17T12:37:33.600Z,45.94
2022-09-17T12:40:06.005Z,46.14
2022-09-17T12:42:32.684Z,51.11
2022-09-17T12:45:11.443Z,49.23
2022-09-17T12:47:47.065Z,51.18
2022-09-17T12:50:16.594Z,47.68
2022-09-17T12:53:08.847Z,49.07
2022-09-17T12:55:59.202Z,51.09
2022-09-17T12:58:31.801Z,46.70
2022-09-17T13:01:33.706Z,50.79
2022-09-17T13:04:18.926Z,52.83
2022-09-17T13:07:07.363Z,49.65
2022-09-17T13:09:54.848Z,52.77
2022-09-17T13:12:34.308Z,51.28
2022-09-17T13:15:33.284Z,49.23
2022-09-17T13:18:23.523Z,52.06
2022-09-17T13:21:14.330Z,52.36
2022-09-17T13:23:49.463Z,55.46
2022-09-17T13:26:19.246Z,52.61
2022-09-17T13:28:51.120Z,50.48
2022-09-17T13:31:44.335Z,48.08
2022-09-17T13:34:17.128Z,48.51
2022-09-17T13:36:46.448Z,49.24
2022-09-17T13:39:34.738Z,52.09
2022-09-17T13:42:19.354Z,51.64
2022-09-17T13:45:03.341Z,55.06
2022-09-17T13:47:39.334Z,47.96
2022-09-17T13:50:12.528Z,49.37
2022-09-17T13:52:45.366Z,47.64
2022-09-17T13:55:34.446Z,48.97
2022-09-17T13:58:04.494Z,50.41
2022-09-17T14:00:50.515Z,49.98
2022-09-17T14:03:34.287Z,52.24
2022-09-17T14:06:14.763Z,48.45
2022-09-17T14:08:44.764Z,50.54
2022-09-17T14:11:23.875Z,50.12
2022-09-17T14:13:53.756Z,55.04
2022-09-17T14:16:35.500Z,54.79
2022-09-17T14:19:22.108Z,51.89
2022-09-17T14:22:00.734Z,48.29
2022-09-17T14:24:45.822Z,49.34
2022-09-17T14:27:27.915Z,53.95
2022-09-17T14:30:20.412Z,46.66
2022-09-17T14:33:08.312Z,45.37
2022-09-17T14:35:42.679Z,46.79
2022-09-17T14:38:20.114Z,46.74
2022-09-17T14:41:00.159Z,54.23
2022-09-17T14:44:01.399Z,46.90
2022-09-17T14:46:45.170Z,46.75
2022-09-17T14:49:28.756Z,52.89
2022-09-17T14:51:58.928Z,47.09
2022-09-17T14:54:26.732Z,47.80
2022-09-17T14:56:59.547Z,52.97
2022-09-17T14:59:54.077Z,44.98
2022-09-17T15:02:36.302Z,52.29
2022-09-17T15:05:33.561Z,51.55
2022-09-17T15:08:13.101Z,48.77
2022-09-17T15:11:02.070Z,48.15
2022-09-17T15:13:32.074Z,44.35
2022-09-17T15:16:07.802Z,50.19
2022-09-17T15:18:41.906Z,50.46
2022-09-17T15:21:27.552Z,50.00
2022-09-17T15:24:00.438Z,44.91
2022-09-17T15:26:35.411Z,50.43
2022-09-17T15:29:04.684Z,49.27
2022-09-17T15:31:31.438Z,45.66
2022-09-17T15:34:01.284Z,49.02
2022-09-17T15:36:29.983Z,51.16
2022-09-17T15:38:57.700Z,49.10
2022-09-17T15:41:35.202Z,47.31
2022-09-17T15:44:32.731Z,47.70
2022-09-17T15:47:39.456Z,48.35
2022-09-17T15:50:19.980Z,45.27
2022-09-17T15:52:47.350Z,45.73
2022-09-17T15:55:41.389Z,45.77
2022-09-17T15:58:23.833Z,46.90
2022-09-17T16:01:10.279Z,50.91
2022-09-17T16:03:39.888Z,45.35
2022-09-17T16:06:18.757Z,50.84
2022-09-17T16:08:56.853Z,50.40
2022-09-17T16:11:29.891Z,45.63
2022-09-17T16:13:58.295Z,48.72
2022-09-17T16:16:36.846Z,51.78
2022-09-17T16:19:06.571Z,47.64
2022-09-17T16:21:34.674Z,45.69
2022-09-17T16:24:01.477Z,46.32
2022-09-17T16:26:36.032Z,47.85
2022-09-17T16:29:07.178Z,51.80
2022-09-17T16:31:34.546Z,50.40
2022-09-17T16:34:01.309Z,48.87
2022-09-17T16:36:32.093Z,51.89
2022-09-17T16:38:59.881Z,50.70
2022-09-17T16:41:27.891Z,47.74
2022-09-17T16:43:55.332Z,48.87
2022-09-17T16:46:22.312Z,48.56
2022-09-17T16:48:52.190Z,54.73
2022-09-17T16:51:19.010Z,51.45
2022-09-17T16:53:45.838Z,52.14
2022-09-17T16:56:14.659Z,53.87
2022-09-17T16:58:41.772Z,51.54
2022-09-17T17:03:56.206Z,50.30
2022-09-17T17:06:22.843Z,52.10
2022-09-17T17:08:50.679Z,51.01
2022-09-17T17:11:17.743Z,52.23
2022-09-17T17:13:45.012Z,52.22
2022-09-17T17:16:17.787Z,53.46
2022-09-17T17:18:45.190Z,52.82
2022-09-17T17:21:14.321Z,52.96
2022-09-17T17:23:43.557Z,54.68
2022-09-17T17:26:10.316Z,52.23
2022-09-17T17:28:37.840Z,53.87
2022-09-17T17:31:04.969Z,52.82
2022-09-17T17:33:31.847Z,54.40
2022-09-17T17:36:08.116Z,54.28
2022-09-17T17:38:35.820Z,55.52
2022-09-17T17:41:15.398Z,53.57
2022-09-17T17:43:42.309Z,53.77
2022-09-17T17:46:11.218Z,52.66
2022-09-17T17:48:38.327Z,52.75
2022-09-17T17:51:10.111Z,54.42
2022-09-17T17:53:37.620Z,52.75
2022-09-17T17:56:06.893Z,55.04
2022-09-17T17:58:34.176Z,54.76
2022-09-17T18:01:01.127Z,53.61
2022-09-17T18:03:27.934Z,52.98
2022-09-17T18:05:58.588Z,54.20
2022-09-17T18:08:25.990Z,54.62
2022-09-17T18:10:57.915Z,54.20
2022-09-17T18:13:24.613Z,54.97
2022-09-17T18:15:55.946Z,55.34
2022-09-17T18:18:23.929Z,54.72
2022-09-17T18:20:53.268Z,55.48
2022-09-17T18:23:20.830Z,55.91
2022-09-17T18:25:58.753Z,57.29
2022-09-17T18:28:27.327Z,57.49
2022-09-17T18:30:54.785Z,53.34
2022-09-17T18:33:24.685Z,53.40
2022-09-17T18:35:56.808Z,55.05
2022-09-17T18:38:24.236Z,55.32
2022-09-17T18:40:51.118Z,55.59
2022-09-17T18:43:18.212Z,55.84
2022-09-17T18:45:55.308Z,53.51
2022-09-17T18:48:22.763Z,53.48
2022-09-17T18:51:06.788Z,52.41
2022-09-17T18:53:36.189Z,55.29
2022-09-17T18:56:06.978Z,55.69
2022-09-17T18:58:34.473Z,55.18
2022-09-17T19:01:05.310Z,54.87
2022-09-17T19:03:33.272Z,55.86
2022-09-17T19:06:04.620Z,55.72
2022-09-17T19:08:31.275Z,58.45
2022-09-17T19:11:00.686Z,59.22
2022-09-17T19:13:33.843Z,56.90
2022-09-17T19:16:01.074Z,57.98
2022-09-17T19:18:27.948Z,58.04
2022-09-17T19:21:10.334Z,58.89
2022-09-17T19:23:41.899Z,57.63
2022-09-17T19:26:13.276Z,61.27
2022-09-17T19:28:39.997Z,60.41
2022-09-17T19:31:12.699Z,59.94
2022-09-17T19:33:40.059Z,58.48
2022-09-17T19:36:15.931Z,56.66
2022-09-17T19:38:43.487Z,56.37
2022-09-17T19:41:12.435Z,55.34
2022-09-17T19:43:40.227Z,58.28
2022-09-17T19:46:16.071Z,57.73
2022-09-17T19:48:47.868Z,56.09
2022-09-17T19:51:15.208Z,54.91
2022-09-17T19:53:42.398Z,52.69
2022-09-17T19:56:18.373Z,53.35
2022-09-17T19:58:45.383Z,49.92
2022-09-17T20:01:12.821Z,50.21
2022-09-17T20:03:40.939Z,52.25
2022-09-17T20:06:10.307Z,53.91
2022-09-17T20:08:42.571Z,54.22
2022-09-17T20:11:13.243Z,55.14
2022-09-17T20:13:39.994Z,54.82
2022-09-17T20:16:25.192Z,56.68
2022-09-17T20:18:51.830Z,53.69
2022-09-17T20:21:21.350Z,55.33
2022-09-17T20:23:48.197Z,51.63
2022-09-17T20:26:16.529Z,51.46
2022-09-17T20:28:44.500Z,49.73
2022-09-17T20:31:16.465Z,50.54
2022-09-17T20:33:43.950Z,52.79
2022-09-17T20:36:14.342Z,51.45
2022-09-17T20:41:29.559Z,53.04
2022-09-17T20:43:56.148Z,53.92
2022-09-17T20:46:28.629Z,52.33
2022-09-17T20:48:57.803Z,53.33
2022-09-17T20:51:27.428Z,53.78
2022-09-17T20:53:54.325Z,55.29
2022-09-17T20:56:23.014Z,55.08
2022-09-17T20:59:04.941Z,54.23
2022-09-17T21:01:35.830Z,55.42
2022-09-17T21:04:05.248Z,55.38
2022-09-17T21:06:35.044Z,55.51
2022-09-17T21:09:02.142Z,56.45
2022-09-17T21:11:31.035Z,56.17
2022-09-17T21:13:58.106Z,56.26
2022-09-17T21:16:25.094Z,57.24
2022-09-17T21:18:56.610Z,56.84
2022-09-17T21:21:23.184Z,58.17
2022-09-17T21:23:50.731Z,57.13
2022-09-17T21:26:19.901Z,57.34
2022-09-17T21:28:48.373Z,57.59
2022-09-17T21:31:36.873Z,58.50
2022-09-17T21:34:06.631Z,59.09
2022-09-17T21:36:36.087Z,60.16
2022-09-17T21:39:05.994Z,57.25
2022-09-17T21:41:32.998Z,57.53
2022-09-17T21:43:59.589Z,56.23
2022-09-17T21:46:34.030Z,54.59
2022-09-17T21:49:04.435Z,60.18
2022-09-17T21:51:37.358Z,52.78
2022-09-17T21:54:06.986Z,53.21
2022-09-17T21:56:34.373Z,55.00
2022-09-17T21:59:02.973Z,59.23
2022-09-17T22:01:40.185Z,53.48
2022-09-17T22:04:09.134Z,54.48
2022-09-17T22:06:36.311Z,58.50
2022-09-17T22:09:05.201Z,54.76
2022-09-17T22:11:35.062Z,54.54
2022-09-17T22:14:10.958Z,53.29
2022-09-17T22:16:41.977Z,54.22
2022-09-17T22:19:10.659Z,56.78
2022-09-17T22:21:40.450Z,58.16
2022-09-17T22:24:07.773Z,58.88
2022-09-17T22:26:37.583Z,59.67
2022-09-17T22:29:09.618Z,60.77
2022-09-17T22:31:36.619Z,60.43
2022-09-17T22:34:08.084Z,60.56
2022-09-17T22:36:34.760Z,61.13
2022-09-17T22:39:01.344Z,61.71
2022-09-17T22:41:33.470Z,62.79
2022-09-17T22:44:02.928Z,63.36
2022-09-17T22:46:31.861Z,63.90
2022-09-17T22:48:59.232Z,63.87
2022-09-17T22:51:27.679Z,62.16
2022-09-17T22:53:54.721Z,62.33
2022-09-17T22:56:23.319Z,63.08
2022-09-17T22:58:50.760Z,63.82
2022-09-17T23:01:26.028Z,65.93
2022-09-17T23:03:53.666Z,61.92
2022-09-17T23:06:27.200Z,61.18
2022-09-17T23:08:54.313Z,61.81
2022-09-17T23:11:32.406Z,63.72
2022-09-17T23:14:03.003Z,64.40
2022-09-17T23:16:37.910Z,64.35
2022-09-17T23:19:05.300Z,64.98
2022-09-17T23:21:32.162Z,64.16
2022-09-17T23:23:58.879Z,64.24
2022-09-17T23:26:27.608Z,64.34
2022-09-17T23:28:54.225Z,64.36
2022-09-17T23:31:26.583Z,64.67
2022-09-17T23:33:53.655Z,64.75
2022-09-17T23:36:26.943Z,64.40
2022-09-17T23:38:55.864Z,64.86
2022-09-17T23:41:31.891Z,64.55
2022-09-17T23:44:00.975Z,62.03
2022-09-17T23:46:30.037Z,62.81
2022-09-17T23:48:57.071Z,61.75
2022-09-17T23:51:26.709Z,61.76
2022-09-17T23:53:54.483Z,63.64
2022-09-17T23:56:23.976Z,63.70
2022-09-17T23:58:51.299Z,63.74
